This is the latest recevied weather packets stored in our database for station/object R6DH-11. If no packets are shown the sender has not sent any weather packets the latest 10 day(s).
| Time | Temp. | Humidity | Pressure | Rain* | Wind** | Luminosity | Snow |
|---|---|---|---|---|---|---|---|
| 1778058118 | 23.33° C | 29% | 1012.6 hPa | - | - | - | - |
| 1778057217 | 24.44° C | 27% | 1013.7 hPa | - | - | - | - |
| 1778056316 | 23.33° C | 30% | 1013.9 hPa | - | - | - | - |
| 1778055413 | 23.33° C | 34% | 1013.9 hPa | - | - | - | - |
| 1778054512 | 23.33° C | 35% | 1014 hPa | - | - | - | - |
| 1778053610 | 23.89° C | 30% | 1014 hPa | - | - | - | - |
| 1778052709 | 22.78° C | 32% | 1014.1 hPa | - | - | - | - |
| 1778051807 | 22.22° C | 33% | 1014 hPa | - | - | - | - |
| 1778050912 | 20° C | 40% | 1014 hPa | - | - | - | - |
| 1778050004 | 21.11° C | 35% | 1013.9 hPa | - | - | - | - |
| 1778049102 | 19.44° C | 36% | 1014.1 hPa | - | - | - | - |
| 1778048201 | 18.33° C | 39% | 1014 hPa | - | - | - | - |
| 1778047299 | 19.44° C | 44% | 1014 hPa | - | - | - | - |
| 1778046398 | 17.22° C | 52% | 1014 hPa | - | - | - | - |
| 1778045497 | 16.67° C | 55% | 1014.2 hPa | - | - | - | - |
| 1778044595 | 16.67° C | 53% | 1014 hPa | - | - | - | - |
| 1778043693 | 16.11° C | 52% | 1013.9 hPa | - | - | - | - |
| 1778042791 | 14.44° C | 56% | 1013.9 hPa | - | - | - | - |
| 1778041890 | 13.33° C | 64% | 1013.8 hPa | - | - | - | - |
| 1778040988 | 12.22° C | 68% | 1013.8 hPa | - | - | - | - |
| 1778040086 | 11.67° C | 74% | 1013.9 hPa | - | - | - | - |
| 1778039185 | 10° C | 79% | 1013.9 hPa | - | - | - | - |
| 1778038283 | 8.89° C | 80% | 1013.7 hPa | - | - | - | - |
| 1778037380 | 8.89° C | 81% | 1013.5 hPa | - | - | - | - |
| 1778036518 | 7.78° C | 81% | 1013.3 hPa | - | - | - | - |
* Rain since midnight (hover to see other rain measurements)
** Current wind speed in m/s (hover to see current wind gust speed)